LPPTLPMR

Guest
Details From LPPT - Lisboa
To LPMR - Monte Real
Flight Number -
Tags Generated
Created
Modified
Stats Distance 63 nm / 117 km
Max Altitude 0 ft / 0 m
Waypoints 2
Social Downloads 1
Likes 0
Share VATSIM

Download

Looking for another format? Having issues loading an existing format? Contact us
Advertisement - Login to hide

Notes

Generated

Route

LPPT LPMR

ID Type Via Altitude Latitude Longitude Leg Dist Tot Dist Heading (true) Name
O LPPT APT - 0 ft / 0 m 38.78624˚ -9.13721˚ - 0 nm - -
O LPMR APT - 0 ft / 0 m 39.81777˚ -8.88779˚ 63 nm 63 nm 11° / 11° -

Altitude Profile

Advertisement - Login to hide

LPPT

Details ICAO LPPT (LIS)
Name Lisboa
Region Portugal
Timezone Europe/Lisbon (UTC+0.0)
Stats Elevation 374 ft / 114 m (AMSL)
Location 38.778559° -9.135146°
Runways 2
Magnetic Variation 2.365° W

METAR

LPPT 110400Z 30010KT 9999 FEW014 SCT035 11/07 Q1000 WS R21

Decode

TAF

TAF LPPT 102300Z 1100/1206 24030G40KT 5000 RA SCT006 BKN010 TEMPO 1100/1101 24035G53KT 2000 +RA BR SCT002 BKN005 BECMG 1101/1103 30015KT 9999 NSW SCT018 TEMPO 1101/1115 30018G30KT 5000 SHRAGS BKN015 FEW020CB PROB30 TEMPO 1101/1109 30020G33KT TSRAGS SCT018CB BECMG 1118/1120 34010KT

Decode

Departure Runways

ID Width Length Bearing (true) Bearing (mag) Surface Threshold Offset Overrun Length
03 148 ft / 45 m 12,518 ft / 3,815 m 22.70° 25.07° Asphalt 296 ft / 90 m 0 ft / 0 m
17 148 ft / 45 m 7,922 ft / 2,415 m 168.38° 170.75° Asphalt 0 ft / 0 m 0 ft / 0 m
21 148 ft / 45 m 12,518 ft / 3,815 m 202.72° 205.09° Asphalt 1,969 ft / 600 m 0 ft / 0 m
35 148 ft / 45 m 7,922 ft / 2,415 m 348.38° 350.75° Asphalt 492 ft / 150 m 0 ft / 0 m

LPMR

Details ICAO LPMR
Name MONTE REAL
Region Portugal
Timezone Europe/Lisbon (UTC+0.0)
Stats Elevation 187 ft / 57 m (AMSL)
Location 39.831239° -8.887258°
Runways 1
Magnetic Variation 2.329° W

METAR

LPMR 110400Z 32017KT 9999 SCT018 SCT022 BKN045 12/06 Q0997

Decode

TAF

TAF TAF LPMR 102310Z 1100/1124 31015KT 9999 SCT012 SCT020 TEMPO 1100/1003 32020G35KT 2000 +RADZ BR BKN005 BKN008 TEMPO 1103/1118 33020G35KT 5000 SHRA BKN015 FEW020CB PROB30 TEMPO 1103/1115 3000 TSRAGS BKN009 SCT018CB BECMG 1118/1120 35015KT FEW020 TEMPO 1118/1124 36015G25KT

Decode

Destination Runways

ID Width Length Bearing (true) Bearing (mag) Surface Threshold Offset Overrun Length
01 148 ft / 45 m 9,833 ft / 2,997 m 1.73° 4.06° Concrete 886 ft / 270 m 0 ft / 0 m
19 148 ft / 45 m 9,833 ft / 2,997 m 181.73° 184.06° Concrete 863 ft / 263 m 0 ft / 0 m

Approach Navaids

Runway Type Ident Frequency Range Bearing (true) Bearing (mag) Slope Elevation
19 Localiser MR 110.30 MHz 18 nm / 33 km 181.74° 184.07° - 187 ft / 57 m (AMSL)
19 Glidescope MR 110.30 MHz 10 nm / 19 km 181.73° 184.06° 2.50° 187 ft / 57 m (AMSL)

Popular Alternatives